sensor_id;sensor_type;location;lat;lon;timestamp;temperature;humidity
10314;DHT22;5202;49.138;10.090;2022-09-12T00:01:27;11.30;99.90
10314;DHT22;5202;49.138;10.090;2022-09-12T00:03:59;11.30;99.90
10314;DHT22;5202;49.138;10.090;2022-09-12T00:07:00;11.30;99.90
10314;DHT22;5202;49.138;10.090;2022-09-12T00:09:28;11.20;99.90
10314;DHT22;5202;49.138;10.090;2022-09-12T00:11:57;11.10;99.90
10314;DHT22;5202;49.138;10.090;2022-09-12T00:14:25;11.10;99.90
10314;DHT22;5202;49.138;10.090;2022-09-12T00:16:56;11.00;99.90
10314;DHT22;5202;49.138;10.090;2022-09-12T00:19:25;11.00;99.90
10314;DHT22;5202;49.138;10.090;2022-09-12T00:21:53;10.90;99.90
10314;DHT22;5202;49.138;10.090;2022-09-12T00:24:23;10.90;99.90
10314;DHT22;5202;49.138;10.090;2022-09-12T00:26:51;10.80;99.90
10314;DHT22;5202;49.138;10.090;2022-09-12T00:29:20;10.70;99.90
10314;DHT22;5202;49.138;10.090;2022-09-12T00:31:49;10.60;99.90
10314;DHT22;5202;49.138;10.090;2022-09-12T00:34:18;10.60;99.90
10314;DHT22;5202;49.138;10.090;2022-09-12T00:36:46;10.60;99.90
10314;DHT22;5202;49.138;10.090;2022-09-12T00:39:15;10.60;99.90
10314;DHT22;5202;49.138;10.090;2022-09-12T00:41:45;10.50;99.90
10314;DHT22;5202;49.138;10.090;2022-09-12T00:44:41;10.50;99.90
10314;DHT22;5202;49.138;10.090;2022-09-12T00:47:24;10.50;99.90
10314;DHT22;5202;49.138;10.090;2022-09-12T00:49:58;10.50;99.90
10314;DHT22;5202;49.138;10.090;2022-09-12T00:52:31;10.50;99.90
10314;DHT22;5202;49.138;10.090;2022-09-12T00:55:05;10.50;99.90
10314;DHT22;5202;49.138;10.090;2022-09-12T00:57:39;10.50;99.90
10314;DHT22;5202;49.138;10.090;2022-09-12T01:00:12;10.40;99.90
10314;DHT22;5202;49.138;10.090;2022-09-12T01:02:45;10.50;99.90
10314;DHT22;5202;49.138;10.090;2022-09-12T01:05:17;10.50;99.90
10314;DHT22;5202;49.138;10.090;2022-09-12T01:07:45;10.50;99.90
10314;DHT22;5202;49.138;10.090;2022-09-12T01:10:16;10.50;99.90
10314;DHT22;5202;49.138;10.090;2022-09-12T01:12:47;10.40;99.90
10314;DHT22;5202;49.138;10.090;2022-09-12T01:15:16;10.40;99.90
10314;DHT22;5202;49.138;10.090;2022-09-12T01:17:57;10.40;99.90
10314;DHT22;5202;49.138;10.090;2022-09-12T01:21:01;10.40;99.90
10314;DHT22;5202;49.138;10.090;2022-09-12T01:24:20;10.30;99.90
10314;DHT22;5202;49.138;10.090;2022-09-12T01:27:26;10.30;99.90
10314;DHT22;5202;49.138;10.090;2022-09-12T01:33:15;10.10;99.90
10314;DHT22;5202;49.138;10.090;2022-09-12T01:36:00;10.10;99.90
10314;DHT22;5202;49.138;10.090;2022-09-12T01:38:48;10.10;99.90
10314;DHT22;5202;49.138;10.090;2022-09-12T01:41:23;10.20;99.90
10314;DHT22;5202;49.138;10.090;2022-09-12T01:44:01;10.20;99.90
10314;DHT22;5202;49.138;10.090;2022-09-12T01:46:40;10.20;99.90
10314;DHT22;5202;49.138;10.090;2022-09-12T01:49:15;10.20;99.90
10314;DHT22;5202;49.138;10.090;2022-09-12T01:51:50;10.30;99.90
10314;DHT22;5202;49.138;10.090;2022-09-12T01:54:28;10.20;99.90
10314;DHT22;5202;49.138;10.090;2022-09-12T01:57:03;10.20;99.90
10314;DHT22;5202;49.138;10.090;2022-09-12T01:59:39;10.20;99.90
10314;DHT22;5202;49.138;10.090;2022-09-12T02:02:14;10.10;99.90
10314;DHT22;5202;49.138;10.090;2022-09-12T02:04:47;10.10;99.90
10314;DHT22;5202;49.138;10.090;2022-09-12T02:07:20;10.20;99.90
10314;DHT22;5202;49.138;10.090;2022-09-12T02:09:54;10.20;99.90
10314;DHT22;5202;49.138;10.090;2022-09-12T02:12:28;10.10;99.90
10314;DHT22;5202;49.138;10.090;2022-09-12T02:15:10;10.10;99.90
10314;DHT22;5202;49.138;10.090;2022-09-12T02:17:43;10.00;99.90
10314;DHT22;5202;49.138;10.090;2022-09-12T02:20:18;10.00;99.90
10314;DHT22;5202;49.138;10.090;2022-09-12T02:23:16;9.90;99.90
10314;DHT22;5202;49.138;10.090;2022-09-12T02:25:48;9.80;99.90
10314;DHT22;5202;49.138;10.090;2022-09-12T02:28:24;9.80;99.90
10314;DHT22;5202;49.138;10.090;2022-09-12T02:31:00;9.80;99.90
10314;DHT22;5202;49.138;10.090;2022-09-12T02:33:41;9.80;99.90
10314;DHT22;5202;49.138;10.090;2022-09-12T02:36:19;9.80;99.90
10314;DHT22;5202;49.138;10.090;2022-09-12T02:38:54;9.90;99.90
10314;DHT22;5202;49.138;10.090;2022-09-12T02:41:23;9.80;99.90
10314;DHT22;5202;49.138;10.090;2022-09-12T02:43:52;9.80;99.90
10314;DHT22;5202;49.138;10.090;2022-09-12T02:46:25;9.80;99.90
10314;DHT22;5202;49.138;10.090;2022-09-12T02:48:56;9.70;99.90
10314;DHT22;5202;49.138;10.090;2022-09-12T02:51:25;9.60;99.90
10314;DHT22;5202;49.138;10.090;2022-09-12T02:53:54;9.60;99.90
10314;DHT22;5202;49.138;10.090;2022-09-12T02:56:26;9.50;99.90
10314;DHT22;5202;49.138;10.090;2022-09-12T02:58:58;9.50;99.90
10314;DHT22;5202;49.138;10.090;2022-09-12T03:01:42;9.50;99.90
10314;DHT22;5202;49.138;10.090;2022-09-12T03:04:46;9.50;99.90
10314;DHT22;5202;49.138;10.090;2022-09-12T03:07:30;9.50;99.90
10314;DHT22;5202;49.138;10.090;2022-09-12T03:10:11;9.50;99.90
10314;DHT22;5202;49.138;10.090;2022-09-12T03:12:48;9.50;99.90
10314;DHT22;5202;49.138;10.090;2022-09-12T03:15:34;9.40;99.90
10314;DHT22;5202;49.138;10.090;2022-09-12T03:18:19;9.40;99.90
10314;DHT22;5202;49.138;10.090;2022-09-12T03:21:00;9.30;99.90
10314;DHT22;5202;49.138;10.090;2022-09-12T03:23:33;9.30;99.90
10314;DHT22;5202;49.138;10.090;2022-09-12T03:26:08;9.40;99.90
10314;DHT22;5202;49.138;10.090;2022-09-12T03:28:39;9.40;99.90
10314;DHT22;5202;49.138;10.090;2022-09-12T03:31:13;9.40;99.90
10314;DHT22;5202;49.138;10.090;2022-09-12T03:33:43;9.30;99.90
10314;DHT22;5202;49.138;10.090;2022-09-12T03:36:16;9.30;99.90
10314;DHT22;5202;49.138;10.090;2022-09-12T03:38:47;9.20;99.90
10314;DHT22;5202;49.138;10.090;2022-09-12T03:41:16;9.20;99.90
10314;DHT22;5202;49.138;10.090;2022-09-12T03:43:44;9.20;99.90
10314;DHT22;5202;49.138;10.090;2022-09-12T03:46:13;9.20;99.90
10314;DHT22;5202;49.138;10.090;2022-09-12T03:48:41;9.20;99.90
10314;DHT22;5202;49.138;10.090;2022-09-12T03:51:10;9.20;99.90
10314;DHT22;5202;49.138;10.090;2022-09-12T03:53:39;9.20;99.90
10314;DHT22;5202;49.138;10.090;2022-09-12T03:56:09;9.20;99.90
10314;DHT22;5202;49.138;10.090;2022-09-12T03:58:38;9.20;99.90
10314;DHT22;5202;49.138;10.090;2022-09-12T04:01:08;9.10;99.90
10314;DHT22;5202;49.138;10.090;2022-09-12T04:03:39;9.20;99.90
10314;DHT22;5202;49.138;10.090;2022-09-12T04:06:10;9.20;99.90
10314;DHT22;5202;49.138;10.090;2022-09-12T04:08:42;9.10;99.90
10314;DHT22;5202;49.138;10.090;2022-09-12T04:11:15;9.10;99.90
10314;DHT22;5202;49.138;10.090;2022-09-12T04:13:44;9.10;99.90
10314;DHT22;5202;49.138;10.090;2022-09-12T04:16:14;9.10;99.90
10314;DHT22;5202;49.138;10.090;2022-09-12T04:18:43;9.00;99.90
10314;DHT22;5202;49.138;10.090;2022-09-12T04:21:14;8.90;99.90
10314;DHT22;5202;49.138;10.090;2022-09-12T04:23:45;8.90;99.90
10314;DHT22;5202;49.138;10.090;2022-09-12T04:26:14;8.80;99.90
10314;DHT22;5202;49.138;10.090;2022-09-12T04:28:44;8.80;99.90
10314;DHT22;5202;49.138;10.090;2022-09-12T04:31:14;8.80;99.90
10314;DHT22;5202;49.138;10.090;2022-09-12T04:33:46;8.80;99.90
10314;DHT22;5202;49.138;10.090;2022-09-12T04:36:15;8.80;99.90
10314;DHT22;5202;49.138;10.090;2022-09-12T04:38:46;8.80;99.90
10314;DHT22;5202;49.138;10.090;2022-09-12T04:41:16;8.80;99.90
10314;DHT22;5202;49.138;10.090;2022-09-12T04:43:47;8.80;99.90
10314;DHT22;5202;49.138;10.090;2022-09-12T04:46:19;8.80;99.90
10314;DHT22;5202;49.138;10.090;2022-09-12T04:48:48;8.80;99.90
10314;DHT22;5202;49.138;10.090;2022-09-12T04:51:25;8.80;99.90
10314;DHT22;5202;49.138;10.090;2022-09-12T04:53:57;8.70;99.90
10314;DHT22;5202;49.138;10.090;2022-09-12T04:56:28;8.60;99.90
10314;DHT22;5202;49.138;10.090;2022-09-12T04:58:57;8.60;99.90
10314;DHT22;5202;49.138;10.090;2022-09-12T05:01:28;8.60;99.90
10314;DHT22;5202;49.138;10.090;2022-09-12T05:03:57;8.50;99.90
10314;DHT22;5202;49.138;10.090;2022-09-12T05:06:28;8.50;99.90
10314;DHT22;5202;49.138;10.090;2022-09-12T05:08:59;8.50;99.90
10314;DHT22;5202;49.138;10.090;2022-09-12T05:11:29;8.50;99.90
10314;DHT22;5202;49.138;10.090;2022-09-12T05:14:18;8.50;99.90
10314;DHT22;5202;49.138;10.090;2022-09-12T05:16:47;8.60;99.90
10314;DHT22;5202;49.138;10.090;2022-09-12T05:19:16;8.60;99.90
10314;DHT22;5202;49.138;10.090;2022-09-12T05:21:44;8.60;99.90
10314;DHT22;5202;49.138;10.090;2022-09-12T05:24:14;8.60;99.90
10314;DHT22;5202;49.138;10.090;2022-09-12T05:26:42;8.60;99.90
10314;DHT22;5202;49.138;10.090;2022-09-12T05:29:10;8.60;99.90
10314;DHT22;5202;49.138;10.090;2022-09-12T05:31:39;8.60;99.90
10314;DHT22;5202;49.138;10.090;2022-09-12T05:34:07;8.60;99.90
10314;DHT22;5202;49.138;10.090;2022-09-12T05:36:36;8.70;99.90
10314;DHT22;5202;49.138;10.090;2022-09-12T05:39:05;8.80;99.90
10314;DHT22;5202;49.138;10.090;2022-09-12T05:41:34;8.90;99.90
10314;DHT22;5202;49.138;10.090;2022-09-12T05:44:04;9.00;99.90
10314;DHT22;5202;49.138;10.090;2022-09-12T05:46:36;9.00;99.90
10314;DHT22;5202;49.138;10.090;2022-09-12T05:49:07;9.10;99.90
10314;DHT22;5202;49.138;10.090;2022-09-12T05:51:37;9.10;99.90
10314;DHT22;5202;49.138;10.090;2022-09-12T05:54:08;9.20;99.90
10314;DHT22;5202;49.138;10.090;2022-09-12T05:56:41;9.30;99.90
10314;DHT22;5202;49.138;10.090;2022-09-12T05:59:12;9.40;99.90
10314;DHT22;5202;49.138;10.090;2022-09-12T06:01:41;9.50;99.90
10314;DHT22;5202;49.138;10.090;2022-09-12T06:04:10;9.60;99.90
10314;DHT22;5202;49.138;10.090;2022-09-12T06:06:40;9.70;99.90
10314;DHT22;5202;49.138;10.090;2022-09-12T06:09:12;9.70;99.90
10314;DHT22;5202;49.138;10.090;2022-09-12T06:11:43;9.80;99.90
10314;DHT22;5202;49.138;10.090;2022-09-12T06:14:14;9.90;99.90
10314;DHT22;5202;49.138;10.090;2022-09-12T06:16:43;10.00;99.90
10314;DHT22;5202;49.138;10.090;2022-09-12T06:19:14;10.10;99.90
10314;DHT22;5202;49.138;10.090;2022-09-12T06:21:43;10.20;99.90
10314;DHT22;5202;49.138;10.090;2022-09-12T06:24:11;10.30;99.90
10314;DHT22;5202;49.138;10.090;2022-09-12T06:26:39;10.40;99.90
10314;DHT22;5202;49.138;10.090;2022-09-12T06:29:10;10.50;99.90
10314;DHT22;5202;49.138;10.090;2022-09-12T06:31:41;10.60;99.90
10314;DHT22;5202;49.138;10.090;2022-09-12T06:34:11;10.80;99.90
10314;DHT22;5202;49.138;10.090;2022-09-12T06:36:42;10.90;99.90
10314;DHT22;5202;49.138;10.090;2022-09-12T06:39:12;11.00;99.90
10314;DHT22;5202;49.138;10.090;2022-09-12T06:41:42;11.10;99.90
10314;DHT22;5202;49.138;10.090;2022-09-12T06:44:14;11.20;99.90
10314;DHT22;5202;49.138;10.090;2022-09-12T06:46:43;11.30;99.90
10314;DHT22;5202;49.138;10.090;2022-09-12T06:49:12;11.40;99.90
10314;DHT22;5202;49.138;10.090;2022-09-12T06:51:41;11.60;99.90
10314;DHT22;5202;49.138;10.090;2022-09-12T06:54:12;11.70;99.90
10314;DHT22;5202;49.138;10.090;2022-09-12T06:56:41;11.90;99.90
10314;DHT22;5202;49.138;10.090;2022-09-12T06:59:11;12.10;99.90
10314;DHT22;5202;49.138;10.090;2022-09-12T07:01:40;12.10;99.90
10314;DHT22;5202;49.138;10.090;2022-09-12T07:04:08;12.20;99.90
10314;DHT22;5202;49.138;10.090;2022-09-12T07:06:39;12.40;99.90
10314;DHT22;5202;49.138;10.090;2022-09-12T07:09:11;12.60;99.90
10314;DHT22;5202;49.138;10.090;2022-09-12T07:11:42;12.70;99.90
10314;DHT22;5202;49.138;10.090;2022-09-12T07:14:13;12.80;99.90
10314;DHT22;5202;49.138;10.090;2022-09-12T07:16:42;13.00;99.90
10314;DHT22;5202;49.138;10.090;2022-09-12T07:19:11;13.10;99.90
10314;DHT22;5202;49.138;10.090;2022-09-12T07:21:39;13.30;99.90
10314;DHT22;5202;49.138;10.090;2022-09-12T07:24:08;13.40;99.90
10314;DHT22;5202;49.138;10.090;2022-09-12T07:26:38;13.60;99.90
10314;DHT22;5202;49.138;10.090;2022-09-12T07:29:14;13.70;99.90
10314;DHT22;5202;49.138;10.090;2022-09-12T07:32:04;13.90;99.90
10314;DHT22;5202;49.138;10.090;2022-09-12T07:34:35;14.00;99.90
10314;DHT22;5202;49.138;10.090;2022-09-12T07:37:03;14.20;99.90
10314;DHT22;5202;49.138;10.090;2022-09-12T07:39:31;14.40;99.90
10314;DHT22;5202;49.138;10.090;2022-09-12T07:42:00;14.60;99.90
10314;DHT22;5202;49.138;10.090;2022-09-12T07:44:29;14.80;99.90
10314;DHT22;5202;49.138;10.090;2022-09-12T07:46:59;15.00;99.90
10314;DHT22;5202;49.138;10.090;2022-09-12T07:49:27;15.10;99.90
10314;DHT22;5202;49.138;10.090;2022-09-12T07:51:56;15.20;99.90
10314;DHT22;5202;49.138;10.090;2022-09-12T07:54:24;15.30;99.90
10314;DHT22;5202;49.138;10.090;2022-09-12T07:56:52;15.50;99.90
10314;DHT22;5202;49.138;10.090;2022-09-12T07:59:21;15.60;99.90
10314;DHT22;5202;49.138;10.090;2022-09-12T08:02:11;15.90;99.90
10314;DHT22;5202;49.138;10.090;2022-09-12T08:04:44;16.10;99.90
10314;DHT22;5202;49.138;10.090;2022-09-12T08:07:13;16.30;99.90
10314;DHT22;5202;49.138;10.090;2022-09-12T08:09:41;16.50;99.90
10314;DHT22;5202;49.138;10.090;2022-09-12T08:12:10;16.60;99.90
10314;DHT22;5202;49.138;10.090;2022-09-12T08:14:38;16.80;99.90
10314;DHT22;5202;49.138;10.090;2022-09-12T08:17:06;17.00;99.90
10314;DHT22;5202;49.138;10.090;2022-09-12T08:19:35;17.10;99.90
10314;DHT22;5202;49.138;10.090;2022-09-12T08:22:04;17.20;99.90
10314;DHT22;5202;49.138;10.090;2022-09-12T08:24:32;17.40;99.90
10314;DHT22;5202;49.138;10.090;2022-09-12T08:27:00;17.50;99.90
10314;DHT22;5202;49.138;10.090;2022-09-12T08:29:29;17.70;99.90
10314;DHT22;5202;49.138;10.090;2022-09-12T08:31:57;17.80;99.90
10314;DHT22;5202;49.138;10.090;2022-09-12T08:34:25;17.90;99.90
10314;DHT22;5202;49.138;10.090;2022-09-12T08:36:55;18.00;99.90
10314;DHT22;5202;49.138;10.090;2022-09-12T08:39:23;18.10;99.90
10314;DHT22;5202;49.138;10.090;2022-09-12T08:41:57;18.30;99.90
10314;DHT22;5202;49.138;10.090;2022-09-12T08:44:50;18.40;99.70
10314;DHT22;5202;49.138;10.090;2022-09-12T08:47:29;18.50;99.90
10314;DHT22;5202;49.138;10.090;2022-09-12T08:50:04;18.60;98.80
10314;DHT22;5202;49.138;10.090;2022-09-12T08:52:46;18.70;99.00
10314;DHT22;5202;49.138;10.090;2022-09-12T08:55:28;18.90;99.30
10314;DHT22;5202;49.138;10.090;2022-09-12T08:57:59;19.10;99.10
10314;DHT22;5202;49.138;10.090;2022-09-12T09:00:36;19.20;98.20
10314;DHT22;5202;49.138;10.090;2022-09-12T09:03:49;19.40;97.70
10314;DHT22;5202;49.138;10.090;2022-09-12T09:06:51;19.50;97.50
10314;DHT22;5202;49.138;10.090;2022-09-12T09:09:38;19.60;96.80
10314;DHT22;5202;49.138;10.090;2022-09-12T09:12:22;19.60;95.90
10314;DHT22;5202;49.138;10.090;2022-09-12T09:15:16;19.70;96.10
10314;DHT22;5202;49.138;10.090;2022-09-12T09:17:52;19.90;96.30
10314;DHT22;5202;49.138;10.090;2022-09-12T09:20:26;20.10;96.10
10314;DHT22;5202;49.138;10.090;2022-09-12T09:23:02;20.20;95.10
10314;DHT22;5202;49.138;10.090;2022-09-12T09:25:41;20.30;95.70
10314;DHT22;5202;49.138;10.090;2022-09-12T09:28:18;20.40;94.30
10314;DHT22;5202;49.138;10.090;2022-09-12T09:30:49;20.50;94.80
10314;DHT22;5202;49.138;10.090;2022-09-12T09:33:22;20.60;94.50
10314;DHT22;5202;49.138;10.090;2022-09-12T09:35:55;20.50;93.10
10314;DHT22;5202;49.138;10.090;2022-09-12T09:38:38;20.50;93.90
10314;DHT22;5202;49.138;10.090;2022-09-12T09:41:33;20.70;94.30
10314;DHT22;5202;49.138;10.090;2022-09-12T09:44:09;20.80;93.80
10314;DHT22;5202;49.138;10.090;2022-09-12T09:46:37;21.00;93.30
10314;DHT22;5202;49.138;10.090;2022-09-12T09:49:08;21.10;93.00
10314;DHT22;5202;49.138;10.090;2022-09-12T09:51:40;21.10;91.50
10314;DHT22;5202;49.138;10.090;2022-09-12T09:54:16;21.10;92.60
10314;DHT22;5202;49.138;10.090;2022-09-12T09:56:48;21.30;92.50
10314;DHT22;5202;49.138;10.090;2022-09-12T09:59:19;21.40;92.20
10314;DHT22;5202;49.138;10.090;2022-09-12T10:01:55;21.50;92.10
10314;DHT22;5202;49.138;10.090;2022-09-12T10:04:31;21.60;91.10
10314;DHT22;5202;49.138;10.090;2022-09-12T10:07:17;21.50;90.10
10314;DHT22;5202;49.138;10.090;2022-09-12T10:10:04;21.40;90.30
10314;DHT22;5202;49.138;10.090;2022-09-12T10:12:42;21.60;91.30
10314;DHT22;5202;49.138;10.090;2022-09-12T10:15:17;21.80;91.40
10314;DHT22;5202;49.138;10.090;2022-09-12T10:17:48;21.90;90.60
10314;DHT22;5202;49.138;10.090;2022-09-12T10:20:31;21.90;90.10
10314;DHT22;5202;49.138;10.090;2022-09-12T10:23:05;22.00;90.30
10314;DHT22;5202;49.138;10.090;2022-09-12T10:25:51;22.20;90.40
10314;DHT22;5202;49.138;10.090;2022-09-12T10:28:33;22.40;91.00
10314;DHT22;5202;49.138;10.090;2022-09-12T10:31:03;22.30;88.10
10314;DHT22;5202;49.138;10.090;2022-09-12T10:33:39;22.10;88.60
10314;DHT22;5202;49.138;10.090;2022-09-12T10:36:09;22.30;90.70
10314;DHT22;5202;49.138;10.090;2022-09-12T10:38:38;22.40;90.20
10314;DHT22;5202;49.138;10.090;2022-09-12T10:41:16;22.30;88.20
10314;DHT22;5202;49.138;10.090;2022-09-12T10:43:46;22.30;86.50
10314;DHT22;5202;49.138;10.090;2022-09-12T10:46:28;22.40;89.00
10314;DHT22;5202;49.138;10.090;2022-09-12T10:49:21;22.80;90.40
10314;DHT22;5202;49.138;10.090;2022-09-12T10:51:55;23.00;88.90
10314;DHT22;5202;49.138;10.090;2022-09-12T10:54:26;23.10;88.00
10314;DHT22;5202;49.138;10.090;2022-09-12T10:57:16;23.30;90.10
10314;DHT22;5202;49.138;10.090;2022-09-12T11:00:04;23.30;86.60
10314;DHT22;5202;49.138;10.090;2022-09-12T11:02:50;23.20;84.80
10314;DHT22;5202;49.138;10.090;2022-09-12T11:05:34;23.20;85.70
10314;DHT22;5202;49.138;10.090;2022-09-12T11:08:13;23.20;85.30
10314;DHT22;5202;49.138;10.090;2022-09-12T11:10:54;23.40;87.40
10314;DHT22;5202;49.138;10.090;2022-09-12T11:13:42;23.60;82.80
10314;DHT22;5202;49.138;10.090;2022-09-12T11:16:26;23.70;82.70
10314;DHT22;5202;49.138;10.090;2022-09-12T11:19:16;24.00;83.60
10314;DHT22;5202;49.138;10.090;2022-09-12T11:22:02;24.10;82.80
10314;DHT22;5202;49.138;10.090;2022-09-12T11:24:55;24.30;82.30
10314;DHT22;5202;49.138;10.090;2022-09-12T11:27:50;24.50;80.40
10314;DHT22;5202;49.138;10.090;2022-09-12T11:30:23;24.40;79.80
10314;DHT22;5202;49.138;10.090;2022-09-12T11:33:23;24.40;80.80
10314;DHT22;5202;49.138;10.090;2022-09-12T11:35:56;24.40;80.70
10314;DHT22;5202;49.138;10.090;2022-09-12T11:38:40;24.40;80.70
10314;DHT22;5202;49.138;10.090;2022-09-12T11:41:27;24.60;79.40
10314;DHT22;5202;49.138;10.090;2022-09-12T11:44:02;24.60;79.20
10314;DHT22;5202;49.138;10.090;2022-09-12T11:46:37;24.70;76.90
10314;DHT22;5202;49.138;10.090;2022-09-12T11:49:16;24.60;77.40
10314;DHT22;5202;49.138;10.090;2022-09-12T11:51:52;24.80;76.30
10314;DHT22;5202;49.138;10.090;2022-09-12T11:54:27;24.70;76.30
10314;DHT22;5202;49.138;10.090;2022-09-12T11:57:07;24.50;75.80
10314;DHT22;5202;49.138;10.090;2022-09-12T11:59:45;24.10;76.20
10314;DHT22;5202;49.138;10.090;2022-09-12T12:02:23;24.10;79.60
10314;DHT22;5202;49.138;10.090;2022-09-12T12:05:15;24.50;79.00
10314;DHT22;5202;49.138;10.090;2022-09-12T12:07:52;24.80;76.30
10314;DHT22;5202;49.138;10.090;2022-09-12T12:10:25;24.90;74.50
10314;DHT22;5202;49.138;10.090;2022-09-12T12:12:57;24.90;75.50
10314;DHT22;5202;49.138;10.090;2022-09-12T12:15:26;24.90;74.50
10314;DHT22;5202;49.138;10.090;2022-09-12T12:18:04;24.70;73.80
10314;DHT22;5202;49.138;10.090;2022-09-12T12:20:35;24.50;75.80
10314;DHT22;5202;49.138;10.090;2022-09-12T12:23:03;24.60;74.90
10314;DHT22;5202;49.138;10.090;2022-09-12T12:25:40;24.60;73.50
10314;DHT22;5202;49.138;10.090;2022-09-12T12:31:27;24.60;75.50
10314;DHT22;5202;49.138;10.090;2022-09-12T12:34:21;24.70;75.50
10314;DHT22;5202;49.138;10.090;2022-09-12T12:36:56;24.80;74.30
10314;DHT22;5202;49.138;10.090;2022-09-12T12:39:55;24.60;73.00
10314;DHT22;5202;49.138;10.090;2022-09-12T12:46:10;25.00;76.80
10314;DHT22;5202;49.138;10.090;2022-09-12T12:49:04;25.00;73.50
10314;DHT22;5202;49.138;10.090;2022-09-12T12:51:45;24.80;74.10
10314;DHT22;5202;49.138;10.090;2022-09-12T12:54:33;24.60;75.00
10314;DHT22;5202;49.138;10.090;2022-09-12T12:57:26;24.50;75.60
10314;DHT22;5202;49.138;10.090;2022-09-12T13:00:00;24.50;76.30
10314;DHT22;5202;49.138;10.090;2022-09-12T13:02:33;24.80;76.70
10314;DHT22;5202;49.138;10.090;2022-09-12T13:05:05;25.10;75.00
10314;DHT22;5202;49.138;10.090;2022-09-12T13:07:44;25.50;74.80
10314;DHT22;5202;49.138;10.090;2022-09-12T13:10:22;25.80;73.00
10314;DHT22;5202;49.138;10.090;2022-09-12T13:12:56;25.90;74.00
10314;DHT22;5202;49.138;10.090;2022-09-12T13:15:47;26.00;72.40
10314;DHT22;5202;49.138;10.090;2022-09-12T13:18:24;26.20;71.50
10314;DHT22;5202;49.138;10.090;2022-09-12T13:21:00;26.30;71.50
10314;DHT22;5202;49.138;10.090;2022-09-12T13:23:33;26.10;69.90
10314;DHT22;5202;49.138;10.090;2022-09-12T13:26:09;26.10;71.40
10314;DHT22;5202;49.138;10.090;2022-09-12T13:28:38;26.30;70.60
10314;DHT22;5202;49.138;10.090;2022-09-12T13:31:11;26.50;71.90
10314;DHT22;5202;49.138;10.090;2022-09-12T13:33:46;26.70;70.50
10314;DHT22;5202;49.138;10.090;2022-09-12T13:36:45;26.80;68.80
10314;DHT22;5202;49.138;10.090;2022-09-12T13:39:22;27.00;70.10
10314;DHT22;5202;49.138;10.090;2022-09-12T13:42:29;27.10;70.00
10314;DHT22;5202;49.138;10.090;2022-09-12T13:45:11;27.40;70.60
10314;DHT22;5202;49.138;10.090;2022-09-12T13:47:43;27.40;66.40
10314;DHT22;5202;49.138;10.090;2022-09-12T13:50:16;27.20;67.20
10314;DHT22;5202;49.138;10.090;2022-09-12T13:52:49;26.90;68.30
10314;DHT22;5202;49.138;10.090;2022-09-12T13:55:27;26.70;69.30
10314;DHT22;5202;49.138;10.090;2022-09-12T13:58:00;26.40;69.20
10314;DHT22;5202;49.138;10.090;2022-09-12T14:00:30;26.30;69.60
10314;DHT22;5202;49.138;10.090;2022-09-12T14:03:27;26.30;69.90
10314;DHT22;5202;49.138;10.090;2022-09-12T14:06:15;26.10;69.80
10314;DHT22;5202;49.138;10.090;2022-09-12T14:08:45;25.90;69.60
10314;DHT22;5202;49.138;10.090;2022-09-12T14:11:23;25.60;69.00
10314;DHT22;5202;49.138;10.090;2022-09-12T14:13:54;25.40;69.70
10314;DHT22;5202;49.138;10.090;2022-09-12T14:16:23;25.50;69.30
10314;DHT22;5202;49.138;10.090;2022-09-12T14:18:54;25.60;67.60
10314;DHT22;5202;49.138;10.090;2022-09-12T14:21:32;25.40;67.10
10314;DHT22;5202;49.138;10.090;2022-09-12T14:24:04;25.10;68.70
10314;DHT22;5202;49.138;10.090;2022-09-12T14:26:35;25.00;70.50
10314;DHT22;5202;49.138;10.090;2022-09-12T14:29:07;25.30;71.20
10314;DHT22;5202;49.138;10.090;2022-09-12T14:31:39;25.80;70.00
10314;DHT22;5202;49.138;10.090;2022-09-12T14:34:11;26.20;68.80
10314;DHT22;5202;49.138;10.090;2022-09-12T14:36:43;26.60;65.30
10314;DHT22;5202;49.138;10.090;2022-09-12T14:39:23;26.80;64.20
10314;DHT22;5202;49.138;10.090;2022-09-12T14:42:04;27.20;63.70
10314;DHT22;5202;49.138;10.090;2022-09-12T14:44:35;27.10;62.00
10314;DHT22;5202;49.138;10.090;2022-09-12T14:47:12;27.20;61.10
10314;DHT22;5202;49.138;10.090;2022-09-12T14:49:45;27.30;61.10
10314;DHT22;5202;49.138;10.090;2022-09-12T14:52:23;27.30;60.70
10314;DHT22;5202;49.138;10.090;2022-09-12T14:54:58;27.70;61.60
10314;DHT22;5202;49.138;10.090;2022-09-12T14:57:36;28.00;59.80
10314;DHT22;5202;49.138;10.090;2022-09-12T15:00:24;28.10;59.00
10314;DHT22;5202;49.138;10.090;2022-09-12T15:02:53;28.30;59.10
10314;DHT22;5202;49.138;10.090;2022-09-12T15:05:26;28.20;57.40
10314;DHT22;5202;49.138;10.090;2022-09-12T15:07:59;28.00;58.80
10314;DHT22;5202;49.138;10.090;2022-09-12T15:10:30;28.10;59.20
10314;DHT22;5202;49.138;10.090;2022-09-12T15:13:25;28.40;60.40
10314;DHT22;5202;49.138;10.090;2022-09-12T15:15:57;28.50;59.40
10314;DHT22;5202;49.138;10.090;2022-09-12T15:18:27;28.50;59.50
10314;DHT22;5202;49.138;10.090;2022-09-12T15:20:59;28.80;59.30
10314;DHT22;5202;49.138;10.090;2022-09-12T15:23:32;29.00;58.20
10314;DHT22;5202;49.138;10.090;2022-09-12T15:26:27;29.00;56.20
10314;DHT22;5202;49.138;10.090;2022-09-12T15:28:57;28.70;55.50
10314;DHT22;5202;49.138;10.090;2022-09-12T15:31:28;28.40;55.50
10314;DHT22;5202;49.138;10.090;2022-09-12T15:33:58;27.80;55.60
10314;DHT22;5202;49.138;10.090;2022-09-12T15:36:28;27.60;56.20
10314;DHT22;5202;49.138;10.090;2022-09-12T15:38:57;27.10;56.20
10314;DHT22;5202;49.138;10.090;2022-09-12T15:41:28;26.80;56.50
10314;DHT22;5202;49.138;10.090;2022-09-12T15:43:58;26.30;57.20
10314;DHT22;5202;49.138;10.090;2022-09-12T15:46:28;26.30;57.50
10314;DHT22;5202;49.138;10.090;2022-09-12T15:48:56;26.40;57.40
10314;DHT22;5202;49.138;10.090;2022-09-12T15:51:24;26.70;57.00
10314;DHT22;5202;49.138;10.090;2022-09-12T15:53:53;26.90;56.30
10314;DHT22;5202;49.138;10.090;2022-09-12T15:56:21;27.10;56.90
10314;DHT22;5202;49.138;10.090;2022-09-12T15:58:50;27.20;55.40
10314;DHT22;5202;49.138;10.090;2022-09-12T16:01:28;27.00;54.80
10314;DHT22;5202;49.138;10.090;2022-09-12T16:03:57;26.40;55.00
10314;DHT22;5202;49.138;10.090;2022-09-12T16:06:25;26.30;56.00
10314;DHT22;5202;49.138;10.090;2022-09-12T16:09:00;26.10;54.50
10314;DHT22;5202;49.138;10.090;2022-09-12T16:11:28;26.00;55.70
10314;DHT22;5202;49.138;10.090;2022-09-12T16:13:57;26.20;56.00
10314;DHT22;5202;49.138;10.090;2022-09-12T16:16:25;26.20;55.60
10314;DHT22;5202;49.138;10.090;2022-09-12T16:18:56;26.10;55.00
10314;DHT22;5202;49.138;10.090;2022-09-12T16:21:24;25.70;55.80
10314;DHT22;5202;49.138;10.090;2022-09-12T16:23:52;25.70;55.90
10314;DHT22;5202;49.138;10.090;2022-09-12T16:26:21;25.90;56.40
10314;DHT22;5202;49.138;10.090;2022-09-12T16:28:53;26.00;56.90
10314;DHT22;5202;49.138;10.090;2022-09-12T16:31:22;26.00;57.50
10314;DHT22;5202;49.138;10.090;2022-09-12T16:33:51;26.10;57.40